Time;durP1;ratioP1;P1;durP2;ratioP2;P2;SDS_P1;SDS_P2;PMS_P1;PMS_P2;Temp;Humidity;BMP_temperature;BMP_pressure;BME280_temperature;BME280_humidity;BME280_pressure;Samples;Min_cycle;Max_cycle;Signal;HPM_P1;HPM_P2
2023/07/16 04:31:32;;;;;;;23.15;7.65;;;16.00;79.20;;;;;;5355488;23;20131;-82
2023/07/16 04:33:57;;;;;;;23.70;6.85;;;16.00;79.30;;;;;;4914637;29;20032;-82
2023/07/16 04:36:23;;;;;;;25.77;7.53;;;16.00;79.10;;;;;;4884717;29;20498;-83
2023/07/16 04:38:49;;;;;;;26.38;7.78;;;16.10;79.30;;;;;;4911982;29;20510;-82
2023/07/16 04:41:15;;;;;;;21.05;7.03;;;16.00;79.60;;;;;;4920395;29;20481;-82
2023/07/16 04:43:41;;;;;;;24.35;7.68;;;16.00;79.70;;;;;;4903534;29;20037;-82
2023/07/16 04:46:07;;;;;;;17.88;6.40;;;16.00;79.80;;;;;;4901146;29;20032;-83
2023/07/16 04:48:32;;;;;;;18.83;6.80;;;16.00;79.80;;;;;;4901319;29;20021;-83
2023/07/16 04:50:59;;;;;;;24.48;6.45;;;16.10;79.70;;;;;;4901399;29;20029;-83
2023/07/16 04:53:28;;;;;;;23.10;7.68;;;16.10;79.60;;;;;;4888418;29;20037;-85
2023/07/16 04:55:53;;;;;;;20.52;7.00;;;16.20;79.60;;;;;;4903061;29;20035;-83
2023/07/16 04:58:19;;;;;;;23.92;7.50;;;16.20;79.50;;;;;;4920195;29;20061;-84
2023/07/16 05:00:45;;;;;;;25.30;8.15;;;16.20;79.30;;;;;;4902532;29;20105;-83
2023/07/16 05:03:11;;;;;;;24.27;7.25;;;16.20;79.60;;;;;;4892081;29;20031;-83
2023/07/16 05:05:36;;;;;;;22.80;7.22;;;16.20;79.40;;;;;;4917052;29;20036;-87
2023/07/16 05:08:02;;;;;;;26.08;7.45;;;16.10;79.60;;;;;;4905960;29;20060;-83
2023/07/16 05:10:28;;;;;;;18.80;6.40;;;16.10;79.80;;;;;;4906093;29;20028;-82
2023/07/16 05:12:54;;;;;;;23.48;7.40;;;16.20;79.80;;;;;;4888036;29;20024;-85
2023/07/16 05:15:20;;;;;;;21.75;8.02;;;16.10;79.80;;;;;;4904623;29;20029;-82
2023/07/16 05:17:45;;;;;;;21.23;7.70;;;16.20;79.60;;;;;;4904613;29;20092;-81
2023/07/16 05:20:11;;;;;;;26.35;8.80;;;16.20;79.40;;;;;;4915948;29;20024;-81
2023/07/16 05:22:37;;;;;;;25.63;8.07;;;16.30;79.30;;;;;;4923346;29;20032;-79
2023/07/16 05:25:02;;;;;;;23.40;8.27;;;16.40;79.20;;;;;;4910212;29;20040;-79
2023/07/16 05:27:28;;;;;;;22.13;7.38;;;16.50;79.00;;;;;;4908099;29;20036;-79
2023/07/16 05:29:54;;;;;;;24.35;7.57;;;16.60;78.80;;;;;;4907111;29;20027;-80
2023/07/16 05:32:53;;;;;;;24.08;8.20;;;16.60;78.80;;;;;;4949856;29;20054;-88
2023/07/16 05:35:19;;;;;;;22.85;7.82;;;16.70;78.60;;;;;;4944398;29;20038;-80
2023/07/16 05:37:45;;;;;;;24.52;8.63;;;16.80;78.40;;;;;;4930448;29;20040;-79
2023/07/16 05:40:13;;;;;;;25.25;8.00;;;16.80;78.30;;;;;;4922437;29;20020;-80
2023/07/16 05:42:38;;;;;;;23.83;7.00;;;16.80;78.20;;;;;;4922540;29;20485;-83
2023/07/16 05:45:04;;;;;;;24.73;8.35;;;16.90;78.00;;;;;;4925360;29;20016;-84
2023/07/16 05:47:30;;;;;;;20.65;8.23;;;16.90;78.00;;;;;;4922208;29;20096;-80
2023/07/16 05:49:56;;;;;;;29.55;8.52;;;16.80;77.90;;;;;;4922697;29;20031;-91
2023/07/16 05:52:21;;;;;;;22.45;8.05;;;17.00;77.90;;;;;;4920094;29;20393;-78
2023/07/16 05:54:47;;;;;;;24.55;8.40;;;17.00;77.60;;;;;;4944139;29;20055;-80
2023/07/16 05:57:13;;;;;;;30.90;7.72;;;17.10;77.60;;;;;;4934680;29;20028;-80
2023/07/16 05:59:38;;;;;;;22.50;8.02;;;17.10;77.20;;;;;;4932459;29;20383;-79
2023/07/16 06:02:04;;;;;;;17.83;6.75;;;17.20;77.30;;;;;;4937143;29;20707;-79
2023/07/16 06:04:30;;;;;;;23.45;7.63;;;17.30;77.10;;;;;;4936720;29;20055;-79
2023/07/16 06:06:57;;;;;;;20.42;7.05;;;17.30;76.80;;;;;;4939709;29;20023;-79
2023/07/16 06:09:23;;;;;;;23.10;8.40;;;17.30;76.80;;;;;;4934230;29;20051;-79
2023/07/16 06:11:48;;;;;;;19.42;7.15;;;17.30;76.70;;;;;;4922967;29;20035;-80
2023/07/16 06:14:14;;;;;;;22.15;8.32;;;17.30;76.80;;;;;;4924493;29;20031;-79
2023/07/16 06:16:40;;;;;;;26.88;8.18;;;17.40;76.60;;;;;;4939772;29;20038;-79
2023/07/16 06:19:05;;;;;;;28.85;7.85;;;17.60;76.30;;;;;;4925443;29;20037;-79
2023/07/16 06:21:31;;;;;;;21.27;7.30;;;17.60;76.00;;;;;;4943043;29;20067;-80
2023/07/16 06:23:57;;;;;;;19.95;8.30;;;17.70;75.80;;;;;;4940538;29;20055;-80
2023/07/16 06:26:22;;;;;;;25.40;7.40;;;17.80;75.40;;;;;;4938514;29;20498;-79
2023/07/16 06:28:49;;;;;;;24.67;8.15;;;17.80;75.40;;;;;;4925188;29;20163;-79
2023/07/16 06:31:18;;;;;;;20.58;8.07;;;17.80;75.10;;;;;;4931371;29;20494;-80
2023/07/16 06:33:47;;;;;;;17.75;7.40;;;17.80;75.00;;;;;;4951941;29;20083;-81
2023/07/16 06:36:14;;;;;;;22.35;8.13;;;18.00;74.80;;;;;;4920899;29;20028;-80
2023/07/16 06:38:40;;;;;;;28.58;8.50;;;18.00;74.80;;;;;;4923389;29;20118;-78
2023/07/16 06:41:06;;;;;;;25.73;8.20;;;17.90;74.60;;;;;;4940748;29;20070;-80
2023/07/16 06:43:32;;;;;;;22.70;7.22;;;17.90;74.50;;;;;;4932574;29;20074;-80
2023/07/16 06:45:57;;;;;;;17.58;6.60;;;18.00;74.50;;;;;;4921434;29;20035;-81
2023/07/16 06:48:23;;;;;;;23.38;7.22;;;18.10;74.50;;;;;;4931469;29;20027;-82
2023/07/16 06:50:51;;;;;;;19.60;6.65;;;18.30;73.80;;;;;;4906520;29;20164;-81
2023/07/16 06:53:16;;;;;;;22.35;7.05;;;18.30;73.70;;;;;;4921176;29;20016;-81
2023/07/16 06:55:42;;;;;;;23.95;7.57;;;18.30;73.50;;;;;;4923342;29;20478;-81
2023/07/16 06:58:11;;;;;;;21.25;6.93;;;18.40;73.20;;;;;;4922905;29;20031;-81
2023/07/16 07:00:37;;;;;;;24.63;7.05;;;18.30;73.70;;;;;;4927461;29;20494;-81
2023/07/16 07:03:02;;;;;;;19.35;6.50;;;18.40;73.70;;;;;;4935677;29;20039;-81
2023/07/16 07:05:28;;;;;;;20.33;7.05;;;18.40;73.50;;;;;;4928487;29;20036;-81
2023/07/16 07:07:53;;;;;;;19.35;7.25;;;18.30;73.20;;;;;;4944344;29;20024;-77
2023/07/16 07:10:20;;;;;;;17.33;6.80;;;18.40;73.20;;;;;;4939041;29;20031;-78
2023/07/16 07:12:45;;;;;;;19.20;6.90;;;18.50;73.20;;;;;;4930955;29;20039;-78
2023/07/16 07:15:11;;;;;;;20.02;6.68;;;18.40;73.00;;;;;;4930980;29;21122;-79
2023/07/16 07:17:37;;;;;;;22.58;6.45;;;18.40;72.80;;;;;;4927677;29;20051;-77
2023/07/16 07:20:03;;;;;;;16.98;5.78;;;18.50;73.20;;;;;;4948413;29;20034;-77
2023/07/16 07:22:29;;;;;;;17.98;5.78;;;18.40;73.00;;;;;;4935944;29;20031;-81
2023/07/16 07:24:54;;;;;;;15.95;6.03;;;18.50;73.10;;;;;;4940045;29;20078;-89
2023/07/16 07:27:20;;;;;;;18.83;6.32;;;18.50;72.60;;;;;;4958628;28;20031;-80
2023/07/16 07:29:51;;;;;;;16.05;5.05;;;18.50;72.80;;;;;;4958208;29;20031;-83
2023/07/16 07:32:19;;;;;;;15.52;5.50;;;18.50;73.00;;;;;;4953621;29;20363;-78
2023/07/16 07:34:45;;;;;;;20.00;5.95;;;18.60;73.00;;;;;;4921148;29;20067;-79
2023/07/16 07:37:10;;;;;;;14.70;5.93;;;18.80;72.70;;;;;;4935782;29;20027;-83
2023/07/16 07:39:36;;;;;;;18.42;5.78;;;18.90;72.20;;;;;;4918788;29;20032;-80
2023/07/16 07:42:02;;;;;;;16.15;5.80;;;19.10;71.80;;;;;;4927806;29;20028;-81
2023/07/16 07:44:27;;;;;;;18.67;6.80;;;19.30;70.70;;;;;;4942700;29;20039;-78
2023/07/16 07:46:53;;;;;;;14.73;5.05;;;19.50;69.50;;;;;;4946875;29;20027;-80
2023/07/16 07:49:18;;;;;;;14.60;5.78;;;19.60;69.20;;;;;;4951605;29;20034;-79
2023/07/16 07:51:44;;;;;;;16.10;5.50;;;19.60;69.60;;;;;;4916029;29;20034;-79
2023/07/16 07:54:10;;;;;;;16.95;5.60;;;19.70;69.50;;;;;;4919251;29;20042;-79
2023/07/16 07:56:35;;;;;;;14.38;4.95;;;19.70;69.20;;;;;;4917721;29;20391;-79
2023/07/16 07:59:01;;;;;;;12.75;5.05;;;19.80;68.30;;;;;;4934108;29;20024;-79
2023/07/16 08:01:27;;;;;;;17.65;5.00;;;19.80;68.50;;;;;;4923494;29;20032;-79
2023/07/16 08:03:52;;;;;;;12.30;4.93;;;20.00;68.30;;;;;;4920302;29;20028;-79
2023/07/16 08:06:18;;;;;;;9.18;3.63;;;20.00;68.40;;;;;;4920976;29;20438;-79
2023/07/16 08:08:43;;;;;;;13.60;4.20;;;20.10;68.00;;;;;;4927810;29;20585;-79
2023/07/16 08:11:09;;;;;;;12.70;4.60;;;20.30;67.80;;;;;;4933666;29;20398;-79
2023/07/16 08:13:35;;;;;;;9.32;3.15;;;20.60;66.80;;;;;;4932769;29;20637;-79
2023/07/16 08:16:00;;;;;;;10.55;3.67;;;20.70;65.60;;;;;;4916481;29;20477;-79
2023/07/16 08:18:26;;;;;;;7.47;2.72;;;20.90;64.80;;;;;;4921333;29;20028;-80
2023/07/16 08:20:52;;;;;;;8.98;3.58;;;21.00;64.20;;;;;;4931701;29;20123;-79
2023/07/16 08:23:17;;;;;;;8.82;3.17;;;20.80;64.60;;;;;;4917302;29;20187;-79
2023/07/16 08:25:44;;;;;;;13.23;3.08;;;20.70;64.20;;;;;;4929088;29;20088;-79
2023/07/16 08:28:09;;;;;;;10.52;3.42;;;20.30;64.60;;;;;;4913016;29;20067;-79
2023/07/16 08:30:35;;;;;;;8.82;3.17;;;20.20;65.00;;;;;;4920186;29;20036;-79
2023/07/16 08:33:01;;;;;;;10.50;3.15;;;20.60;64.80;;;;;;4915235;29;20024;-79
2023/07/16 08:35:27;;;;;;;8.90;3.25;;;20.80;65.10;;;;;;4919302;29;20024;-79
2023/07/16 08:37:52;;;;;;;12.57;3.13;;;21.80;63.60;;;;;;4913998;29;20036;-79
2023/07/16 08:40:18;;;;;;;6.28;2.90;;;23.30;59.60;;;;;;4918541;29;20028;-79
2023/07/16 08:42:49;;;;;;;8.00;3.28;;;25.20;53.90;;;;;;4922689;29;20040;-80
2023/07/16 08:45:16;;;;;;;12.60;3.08;;;26.90;49.20;;;;;;4932808;29;20028;-77
2023/07/16 08:47:42;;;;;;;8.38;2.92;;;27.50;47.40;;;;;;4917950;29;20031;-80
2023/07/16 08:50:09;;;;;;;7.90;3.05;;;27.60;45.50;;;;;;4924204;29;20427;-80
2023/07/16 08:52:34;;;;;;;7.97;3.10;;;27.10;44.90;;;;;;4924755;29;20043;-80
2023/07/16 08:55:00;;;;;;;10.40;3.13;;;26.60;46.30;;;;;;4939524;29;20390;-81
2023/07/16 08:57:27;;;;;;;8.85;3.10;;;26.30;46.20;;;;;;4957456;29;20041;-81
2023/07/16 08:59:53;;;;;;;7.90;2.85;;;25.90;46.80;;;;;;4923622;29;20028;-81
2023/07/16 09:02:19;;;;;;;9.02;3.00;;;25.20;48.60;;;;;;4911276;29;20067;-80
2023/07/16 09:04:49;;;;;;;10.60;3.50;;;24.40;50.20;;;;;;4936349;29;20386;-80
2023/07/16 09:07:15;;;;;;;8.25;3.42;;;23.50;52.20;;;;;;4923840;29;20035;-81
2023/07/16 09:09:41;;;;;;;11.07;3.60;;;23.20;53.50;;;;;;4923598;29;20083;-80
2023/07/16 09:12:11;;;;;;;10.98;3.45;;;23.00;54.70;;;;;;4940454;29;20059;-80
2023/07/16 09:14:37;;;;;;;8.40;3.45;;;22.90;55.30;;;;;;4925239;29;20095;-80
2023/07/16 09:17:03;;;;;;;9.23;3.53;;;22.90;55.20;;;;;;4925394;29;20032;-81
2023/07/16 09:19:32;;;;;;;11.27;3.45;;;23.00;55.60;;;;;;4928764;29;20032;-81
2023/07/16 09:21:58;;;;;;;12.60;4.30;;;23.30;54.50;;;;;;4906888;29;20032;-81
2023/07/16 09:24:24;;;;;;;7.75;3.40;;;23.30;55.00;;;;;;4922677;29;20028;-80
2023/07/16 09:26:50;;;;;;;12.95;3.72;;;23.40;55.20;;;;;;4916045;29;20062;-80
2023/07/16 09:29:16;;;;;;;9.60;4.75;;;23.80;53.80;;;;;;4925019;29;20047;-81
2023/07/16 09:31:59;;;;;;;9.70;4.07;;;24.20;50.70;;;;;;4925943;29;20523;-80
2023/07/16 09:34:29;;;;;;;10.13;3.92;;;24.20;51.90;;;;;;4925080;29;20032;-80
2023/07/16 09:37:00;;;;;;;12.50;3.97;;;24.30;52.20;;;;;;4921143;29;20104;-80
2023/07/16 09:39:27;;;;;;;8.27;3.60;;;24.10;51.20;;;;;;4923346;29;20024;-80
2023/07/16 09:41:53;;;;;;;10.70;3.83;;;23.70;52.90;;;;;;4906463;29;20403;-80
2023/07/16 09:44:19;;;;;;;10.00;3.58;;;23.30;52.60;;;;;;4921998;29;20024;-81
2023/07/16 09:46:46;;;;;;;11.20;3.50;;;22.80;53.60;;;;;;4922466;29;20035;-80
2023/07/16 09:49:14;;;;;;;7.13;3.47;;;22.50;53.20;;;;;;4923426;29;20092;-81
2023/07/16 09:51:43;;;;;;;12.27;3.50;;;22.30;54.60;;;;;;4925153;29;20064;-80
2023/07/16 09:54:11;;;;;;;12.02;3.30;;;22.30;55.40;;;;;;4905415;29;20024;-81
2023/07/16 09:56:41;;;;;;;8.45;2.95;;;22.30;55.40;;;;;;4922861;29;20035;-81
2023/07/16 09:59:15;;;;;;;12.07;3.25;;;22.40;54.50;;;;;;4923151;29;20038;-81
2023/07/16 10:01:41;;;;;;;9.80;3.67;;;22.70;54.20;;;;;;4906480;29;20032;-81
2023/07/16 10:04:18;;;;;;;7.63;3.15;;;22.80;53.70;;;;;;4940571;29;20071;-80
2023/07/16 10:07:00;;;;;;;9.95;3.08;;;22.90;53.80;;;;;;4905437;29;20116;-80
2023/07/16 10:09:50;;;;;;;9.05;2.97;;;23.10;53.60;;;;;;4906012;29;20032;-80
2023/07/16 10:12:20;;;;;;;8.40;3.13;;;23.20;52.80;;;;;;4923732;29;20055;-80
2023/07/16 10:14:48;;;;;;;10.32;2.90;;;23.20;51.70;;;;;;4931096;29;20040;-80
2023/07/16 10:17:19;;;;;;;6.88;3.13;;;23.20;50.30;;;;;;4928227;29;20494;-80
2023/07/16 10:20:00;;;;;;;9.88;3.47;;;23.40;50.80;;;;;;4932106;29;20036;-80
2023/07/16 10:22:37;;;;;;;9.20;3.65;;;23.80;51.00;;;;;;4914656;29;20385;-80
2023/07/16 10:25:08;;;;;;;7.53;3.20;;;23.90;50.70;;;;;;4914282;29;20019;-80
2023/07/16 10:27:34;;;;;;;9.40;3.97;;;24.00;49.90;;;;;;4935944;29;20020;-80
2023/07/16 10:30:04;;;;;;;12.55;3.05;;;24.00;50.50;;;;;;4919613;29;20107;-81
2023/07/16 10:32:32;;;;;;;8.70;3.22;;;24.20;50.50;;;;;;4928324;29;20052;-78
2023/07/16 10:34:58;;;;;;;10.75;3.67;;;24.00;50.50;;;;;;4922939;29;20475;-79
2023/07/16 10:37:25;;;;;;;12.68;4.07;;;23.80;50.20;;;;;;4905774;29;20453;-84
2023/07/16 10:39:53;;;;;;;11.30;4.15;;;23.80;51.20;;;;;;4921928;29;20039;-81
2023/07/16 10:42:40;;;;;;;9.90;3.63;;;23.80;51.60;;;;;;4905336;29;20119;-84
2023/07/16 10:45:09;;;;;;;9.88;3.50;;;23.80;51.50;;;;;;4925197;29;20032;-84
2023/07/16 10:47:52;;;;;;;11.02;4.55;;;23.60;51.20;;;;;;4927350;29;20043;-85
2023/07/16 10:50:20;;;;;;;8.70;3.40;;;23.50;51.90;;;;;;4922610;29;20175;-84
2023/07/16 10:52:45;;;;;;;5.95;2.88;;;23.00;53.10;;;;;;4920786;29;20025;-83
2023/07/16 10:55:11;;;;;;;10.18;3.95;;;22.60;55.40;;;;;;4921086;29;20479;-83
2023/07/16 10:57:37;;;;;;;9.68;3.60;;;22.10;59.60;;;;;;4916452;29;20040;-82
2023/07/16 11:00:03;;;;;;;11.65;3.20;;;21.40;65.00;;;;;;4905829;29;20028;-83
2023/07/16 11:02:29;;;;;;;8.63;2.95;;;20.90;68.50;;;;;;4916894;29;20032;-84
2023/07/16 11:04:57;;;;;;;6.90;2.80;;;20.50;74.30;;;;;;4939544;29;20042;-82
2023/07/16 11:07:23;;;;;;;4.55;2.20;;;20.30;74.30;;;;;;4922483;29;20031;-83
2023/07/16 11:09:50;;;;;;;6.93;2.22;;;20.40;73.50;;;;;;4922294;29;20475;-84
2023/07/16 11:12:19;;;;;;;8.40;2.10;;;20.70;72.10;;;;;;4938111;29;20349;-81
2023/07/16 11:14:49;;;;;;;6.30;1.90;;;20.90;70.80;;;;;;4922116;29;20042;-81
2023/07/16 11:17:15;;;;;;;6.57;1.67;;;21.00;70.50;;;;;;4941598;29;20031;-82
2023/07/16 11:19:45;;;;;;;6.03;1.60;;;21.20;70.40;;;;;;4944792;29;20038;-81
2023/07/16 11:22:10;;;;;;;4.38;1.40;;;21.20;70.10;;;;;;4940085;29;20406;-81
2023/07/16 11:24:41;;;;;;;4.18;1.80;;;21.10;68.20;;;;;;4940077;29;20027;-81
2023/07/16 11:27:17;;;;;;;4.10;1.65;;;21.30;68.50;;;;;;4936070;29;20394;-81
2023/07/16 11:29:47;;;;;;;5.85;1.50;;;21.70;68.80;;;;;;4904613;29;20036;-78
2023/07/16 11:32:14;;;;;;;3.35;1.65;;;21.80;69.50;;;;;;4939975;29;20051;-78
2023/07/16 11:34:53;;;;;;;3.20;1.60;;;21.90;68.40;;;;;;4938765;29;20107;-81
2023/07/16 11:37:20;;;;;;;3.80;1.42;;;22.00;68.10;;;;;;4931203;29;20027;-79
2023/07/16 11:39:47;;;;;;;3.65;1.35;;;22.10;67.90;;;;;;4918899;29;20039;-79
2023/07/16 11:42:13;;;;;;;3.83;1.42;;;22.20;67.80;;;;;;4919785;29;20026;-79
2023/07/16 11:44:38;;;;;;;4.78;1.58;;;22.10;68.70;;;;;;4938618;29;20035;-79
2023/07/16 11:47:04;;;;;;;6.72;1.80;;;22.00;66.80;;;;;;4937570;29;20023;-79
2023/07/16 11:49:30;;;;;;;5.78;1.95;;;22.10;68.00;;;;;;4937855;29;20509;-79
2023/07/16 11:51:57;;;;;;;4.70;1.70;;;22.30;68.70;;;;;;4922082;29;20565;-79
2023/07/16 11:54:23;;;;;;;4.00;1.20;;;22.50;70.80;;;;;;4921403;29;20158;-79
2023/07/16 11:56:48;;;;;;;4.03;1.30;;;22.60;66.70;;;;;;4937918;29;20035;-79
2023/07/16 11:59:20;;;;;;;3.13;1.00;;;22.60;68.40;;;;;;4939556;29;20027;-79
2023/07/16 12:01:48;;;;;;;4.07;0.88;;;22.60;65.70;;;;;;4931308;29;20035;-79
2023/07/16 12:04:14;;;;;;;4.90;1.00;;;22.70;65.50;;;;;;4922072;29;20023;-79
2023/07/16 12:06:39;;;;;;;2.78;1.00;;;22.90;65.90;;;;;;4935998;29;20051;-79
2023/07/16 12:09:05;;;;;;;3.50;1.35;;;22.90;64.10;;;;;;4938369;29;20031;-79
2023/07/16 12:11:31;;;;;;;1.17;0.65;;;23.10;64.10;;;;;;4939273;29;20471;-79
2023/07/16 12:13:57;;;;;;;4.80;1.15;;;23.20;62.80;;;;;;4921112;29;20095;-79
2023/07/16 12:16:22;;;;;;;3.40;1.00;;;23.10;61.90;;;;;;4939039;29;20410;-79
2023/07/16 12:18:48;;;;;;;3.03;0.90;;;23.30;61.30;;;;;;4932857;29;20035;-79
2023/07/16 12:21:14;;;;;;;3.30;1.00;;;23.70;62.80;;;;;;4938995;29;20028;-79
2023/07/16 12:23:39;;;;;;;3.47;0.93;;;23.90;60.80;;;;;;4940466;29;20038;-79
2023/07/16 12:26:05;;;;;;;3.15;1.10;;;24.00;60.80;;;;;;4922146;29;20027;-79
2023/07/16 12:28:30;;;;;;;2.50;0.80;;;23.80;59.00;;;;;;4937207;29;20052;-79
2023/07/16 12:30:56;;;;;;;1.83;0.80;;;23.60;56.00;;;;;;4937638;29;20048;-79
2023/07/16 12:33:22;;;;;;;1.90;0.90;;;23.30;55.20;;;;;;4916082;29;20596;-79
2023/07/16 12:35:50;;;;;;;3.05;0.90;;;23.30;55.40;;;;;;4928084;29;20168;-84
2023/07/16 12:38:16;;;;;;;3.70;1.25;;;23.30;55.90;;;;;;4921259;29;20020;-80
2023/07/16 12:40:42;;;;;;;2.35;0.82;;;23.30;55.50;;;;;;4930638;29;20083;-79
2023/07/16 12:43:07;;;;;;;2.90;1.10;;;23.50;55.50;;;;;;4938336;29;20032;-79
2023/07/16 12:45:33;;;;;;;3.67;1.08;;;23.60;54.30;;;;;;4912870;29;20024;-80
2023/07/16 12:47:58;;;;;;;2.55;0.88;;;23.70;55.70;;;;;;4927885;29;20048;-79
2023/07/16 12:50:25;;;;;;;3.15;1.00;;;23.70;55.80;;;;;;4925409;29;20387;-79
2023/07/16 12:52:52;;;;;;;2.20;0.90;;;23.80;56.00;;;;;;4916754;29;20819;-78
2023/07/16 12:55:17;;;;;;;2.45;1.00;;;23.80;54.00;;;;;;4930342;29;20512;-79
2023/07/16 12:57:43;;;;;;;2.58;1.00;;;23.80;54.00;;;;;;4939217;29;20032;-80
2023/07/16 13:00:10;;;;;;;5.45;1.35;;;23.90;52.80;;;;;;4919882;29;20024;-80
2023/07/16 13:02:37;;;;;;;3.58;1.02;;;23.90;52.10;;;;;;4921536;29;20095;-80
2023/07/16 13:05:02;;;;;;;3.47;1.20;;;24.00;51.70;;;;;;4937954;29;20039;-79
2023/07/16 13:07:30;;;;;;;2.83;1.10;;;24.00;50.20;;;;;;4914702;29;20032;-80
2023/07/16 13:09:55;;;;;;;4.13;1.20;;;23.90;50.70;;;;;;4937948;29;20265;-79
2023/07/16 13:12:21;;;;;;;2.55;0.90;;;23.90;50.30;;;;;;4937460;29;20682;-79
2023/07/16 13:14:47;;;;;;;4.80;1.20;;;24.00;50.50;;;;;;4912433;29;20031;-80
2023/07/16 13:17:12;;;;;;;3.70;1.13;;;24.10;48.40;;;;;;4933663;29;20461;-80
2023/07/16 13:19:38;;;;;;;3.03;1.10;;;24.00;48.70;;;;;;4923514;29;20562;-81
2023/07/16 13:22:04;;;;;;;3.92;1.15;;;23.70;48.50;;;;;;4931419;29;20046;-80
2023/07/16 13:24:30;;;;;;;3.58;1.10;;;23.50;48.00;;;;;;4904659;29;20059;-79
2023/07/16 13:26:55;;;;;;;3.50;1.10;;;23.50;48.80;;;;;;4920387;29;20091;-80
2023/07/16 13:29:21;;;;;;;3.35;1.10;;;23.60;47.20;;;;;;4906556;29;20031;-80
2023/07/16 13:31:47;;;;;;;4.47;1.40;;;23.90;49.10;;;;;;4907063;29;20569;-81
2023/07/16 13:34:13;;;;;;;4.80;1.55;;;23.80;48.60;;;;;;4926643;29;20414;-82
2023/07/16 13:36:38;;;;;;;2.90;1.27;;;23.60;48.60;;;;;;4926679;29;20103;-81
2023/07/16 13:39:07;;;;;;;5.13;1.50;;;23.40;50.20;;;;;;4907431;29;20020;-82
2023/07/16 13:41:33;;;;;;;6.18;1.63;;;23.50;50.60;;;;;;4922230;29;20036;-81
2023/07/16 13:43:59;;;;;;;4.85;1.38;;;23.80;50.60;;;;;;4908664;29;20024;-82
2023/07/16 13:46:24;;;;;;;3.60;1.38;;;23.90;50.60;;;;;;4913715;29;20375;-82
2023/07/16 13:48:50;;;;;;;4.22;1.42;;;24.20;48.10;;;;;;4929219;29;20383;-82
2023/07/16 13:51:16;;;;;;;3.28;1.20;;;24.30;47.10;;;;;;4927545;29;20072;-82
2023/07/16 13:53:41;;;;;;;7.75;1.73;;;24.10;48.50;;;;;;4925971;29;20072;-82
2023/07/16 13:56:08;;;;;;;5.28;1.65;;;24.00;47.10;;;;;;4923818;29;20103;-81
2023/07/16 13:58:33;;;;;;;3.83;1.52;;;23.80;46.60;;;;;;4922334;29;20076;-83
2023/07/16 14:00:59;;;;;;;4.55;1.73;;;24.00;45.60;;;;;;4925837;29;20023;-82
2023/07/16 14:03:25;;;;;;;5.15;1.67;;;24.30;46.10;;;;;;4927095;29;20405;-81
2023/07/16 14:05:51;;;;;;;5.50;1.98;;;24.40;45.30;;;;;;4905584;29;20036;-81
2023/07/16 14:08:17;;;;;;;4.53;1.50;;;24.30;45.80;;;;;;4924161;29;20032;-81
2023/07/16 14:10:42;;;;;;;5.30;1.90;;;24.30;43.70;;;;;;4926311;29;20058;-83
2023/07/16 14:13:08;;;;;;;5.00;1.90;;;24.40;44.70;;;;;;4923288;29;20028;-82
2023/07/16 14:15:34;;;;;;;7.30;2.67;;;24.30;43.20;;;;;;4906435;29;20068;-81
2023/07/16 14:17:59;;;;;;;7.22;2.17;;;24.40;45.10;;;;;;4927210;29;20112;-80
2023/07/16 14:20:25;;;;;;;6.85;2.53;;;24.70;44.00;;;;;;4905154;29;20032;-80
2023/07/16 14:22:51;;;;;;;6.25;2.35;;;24.60;44.40;;;;;;4910306;29;20059;-80
2023/07/16 14:25:17;;;;;;;7.55;2.72;;;24.70;44.30;;;;;;4924734;29;20026;-80
2023/07/16 14:27:43;;;;;;;6.70;2.22;;;24.80;43.70;;;;;;4925959;29;20047;-80
2023/07/16 14:30:10;;;;;;;9.02;2.95;;;24.70;43.20;;;;;;4940530;29;20020;-81
2023/07/16 14:32:36;;;;;;;8.05;2.67;;;24.70;44.20;;;;;;4922032;29;20039;-83
2023/07/16 14:35:03;;;;;;;5.82;2.60;;;24.40;43.30;;;;;;4924115;29;20502;-79
2023/07/16 14:37:29;;;;;;;7.60;2.65;;;24.30;44.10;;;;;;4923142;29;20047;-78
2023/07/16 14:39:55;;;;;;;7.18;2.65;;;24.10;45.00;;;;;;4941083;29;20487;-82
2023/07/16 14:42:20;;;;;;;10.88;2.60;;;23.90;44.20;;;;;;4928597;29;20023;-80
2023/07/16 14:44:46;;;;;;;7.20;3.25;;;23.90;45.50;;;;;;4941067;29;20518;-80
2023/07/16 14:47:12;;;;;;;4.97;2.35;;;24.20;44.90;;;;;;4933608;29;20020;-80
2023/07/16 14:49:38;;;;;;;8.18;3.00;;;24.20;43.70;;;;;;4946153;29;20036;-80
2023/07/16 14:52:04;;;;;;;10.07;3.38;;;24.10;44.00;;;;;;4935657;29;20466;-80
2023/07/16 14:54:30;;;;;;;10.45;3.35;;;24.00;43.90;;;;;;4938052;29;20028;-81
2023/07/16 14:56:55;;;;;;;7.70;2.95;;;23.90;44.10;;;;;;4905378;29;20296;-81
2023/07/16 14:59:21;;;;;;;7.10;3.38;;;23.90;44.90;;;;;;4918719;29;20027;-80
2023/07/16 15:01:47;;;;;;;9.32;3.13;;;23.90;44.30;;;;;;4924543;29;20036;-80
2023/07/16 15:04:12;;;;;;;7.90;2.95;;;24.00;43.70;;;;;;4926426;29;20075;-81
2023/07/16 15:06:38;;;;;;;9.05;3.03;;;24.10;44.20;;;;;;4929325;29;20062;-80
2023/07/16 15:09:04;;;;;;;8.23;3.33;;;24.30;44.00;;;;;;4925198;29;20074;-80
2023/07/16 15:11:33;;;;;;;7.25;3.05;;;24.50;44.10;;;;;;4928099;29;20023;-80
2023/07/16 15:13:59;;;;;;;6.50;3.42;;;24.50;42.70;;;;;;4924163;29;20020;-81
2023/07/16 15:16:25;;;;;;;6.72;2.38;;;24.30;43.20;;;;;;4918400;29;20032;-80
2023/07/16 15:18:50;;;;;;;7.53;3.17;;;24.40;43.20;;;;;;4924336;29;20145;-80
2023/07/16 15:21:16;;;;;;;7.63;3.58;;;24.60;45.40;;;;;;4909688;29;20043;-79
2023/07/16 15:23:44;;;;;;;9.55;2.90;;;24.40;43.90;;;;;;4919066;29;20024;-79
2023/07/16 15:26:11;;;;;;;7.70;3.28;;;24.30;44.90;;;;;;4913731;29;20088;-79
2023/07/16 15:28:38;;;;;;;7.82;3.13;;;24.30;44.40;;;;;;4929290;29;20020;-78
2023/07/16 15:31:04;;;;;;;6.35;2.20;;;24.30;43.70;;;;;;4946668;29;20043;-78
2023/07/16 15:33:30;;;;;;;6.68;2.55;;;24.20;43.90;;;;;;4930181;29;20474;-78
2023/07/16 15:35:57;;;;;;;4.60;2.13;;;24.00;43.80;;;;;;4943383;29;20036;-78
2023/07/16 15:38:22;;;;;;;10.73;3.40;;;24.10;44.30;;;;;;4949437;29;20016;-78
2023/07/16 15:40:48;;;;;;;8.32;2.72;;;24.10;43.80;;;;;;4946190;29;20402;-78
2023/07/16 15:43:14;;;;;;;9.32;3.20;;;24.20;44.50;;;;;;4949656;29;20033;-78
2023/07/16 15:45:40;;;;;;;9.48;3.05;;;24.10;44.00;;;;;;4931009;29;20031;-79
2023/07/16 15:48:07;;;;;;;7.82;3.05;;;23.90;43.70;;;;;;4947773;29;20079;-79
2023/07/16 15:50:32;;;;;;;6.32;2.28;;;23.90;44.60;;;;;;4932294;29;20050;-78
2023/07/16 15:52:58;;;;;;;5.97;2.58;;;24.10;44.40;;;;;;4948303;29;20016;-78
2023/07/16 15:55:24;;;;;;;7.57;2.40;;;24.20;44.00;;;;;;4932510;29;20134;-78
2023/07/16 15:57:50;;;;;;;6.50;2.50;;;24.20;44.10;;;;;;4930015;29;20032;-79
2023/07/16 16:00:16;;;;;;;6.95;2.78;;;23.80;43.90;;;;;;4931568;29;20518;-78
2023/07/16 16:02:44;;;;;;;8.63;3.25;;;23.60;44.00;;;;;;4927336;29;20032;-82
2023/07/16 16:05:10;;;;;;;7.88;2.75;;;23.40;44.40;;;;;;4927704;29;20164;-79
2023/07/16 16:07:42;;;;;;;5.78;2.10;;;23.30;45.10;;;;;;4931983;29;20027;-78
2023/07/16 16:10:08;;;;;;;8.20;3.30;;;23.30;45.50;;;;;;4948546;29;20075;-79
2023/07/16 16:12:34;;;;;;;8.75;3.55;;;23.20;44.70;;;;;;4942371;29;20016;-78
2023/07/16 16:15:00;;;;;;;9.82;2.88;;;23.10;45.50;;;;;;4931104;29;20068;-78
2023/07/16 16:17:25;;;;;;;6.60;2.55;;;23.00;46.50;;;;;;4932486;29;20024;-80
2023/07/16 16:19:51;;;;;;;6.55;2.63;;;22.90;45.90;;;;;;4920997;29;20040;-80
2023/07/16 16:22:17;;;;;;;9.45;2.92;;;22.80;46.80;;;;;;4906859;29;20032;-82
2023/07/16 16:24:43;;;;;;;10.68;3.95;;;22.70;46.90;;;;;;4939725;29;20058;-79
2023/07/16 16:27:08;;;;;;;7.75;2.67;;;22.80;47.00;;;;;;4926998;29;20035;-79
2023/07/16 16:29:34;;;;;;;9.00;2.75;;;22.80;47.80;;;;;;4920603;29;20098;-79
2023/07/16 16:32:00;;;;;;;7.43;2.67;;;22.80;48.30;;;;;;4923420;29;20207;-81
2023/07/16 16:34:25;;;;;;;8.13;2.67;;;22.80;48.30;;;;;;4931746;29;20043;-80
2023/07/16 16:36:51;;;;;;;7.80;3.05;;;22.90;48.30;;;;;;4903492;29;20032;-80
2023/07/16 16:39:21;;;;;;;7.10;2.42;;;23.00;47.90;;;;;;4913839;29;20054;-80
2023/07/16 16:41:47;;;;;;;8.35;2.88;;;22.90;47.80;;;;;;4921763;29;20056;-80
2023/07/16 16:44:13;;;;;;;5.82;2.60;;;23.00;47.60;;;;;;4929818;29;20119;-79
2023/07/16 16:46:40;;;;;;;9.57;3.25;;;23.10;48.10;;;;;;4924214;29;20024;-80
2023/07/16 16:49:05;;;;;;;10.40;2.45;;;23.10;48.20;;;;;;4957901;29;20537;-79
2023/07/16 16:51:31;;;;;;;7.65;2.58;;;23.10;48.00;;;;;;4926102;29;20028;-79
2023/07/16 16:53:56;;;;;;;9.35;2.08;;;23.00;47.60;;;;;;4920390;29;20028;-84
2023/07/16 16:56:22;;;;;;;9.00;2.33;;;22.90;47.90;;;;;;4914057;29;20037;-79
2023/07/16 16:58:48;;;;;;;4.88;1.55;;;22.80;49.40;;;;;;4920333;29;20111;-79
2023/07/16 17:01:15;;;;;;;6.20;2.20;;;22.60;50.50;;;;;;4905071;29;20040;-79
2023/07/16 17:03:41;;;;;;;5.90;2.17;;;22.40;50.90;;;;;;4925441;29;20056;-79
2023/07/16 17:06:06;;;;;;;6.85;2.00;;;22.30;51.30;;;;;;4925864;29;20039;-83
2023/07/16 17:08:32;;;;;;;8.38;2.55;;;22.30;51.60;;;;;;4943215;29;20493;-80
2023/07/16 17:10:58;;;;;;;6.80;2.20;;;22.30;51.40;;;;;;4933033;29;20482;-79